sensor_id;sensor_type;location;lat;lon;timestamp;P1;durP1;ratioP1;P2;durP2;ratioP2
71965;SDS011;59836;52.132;5.442;2022-08-01T00:01:56;7.07;;;4.07;;
71965;SDS011;59836;52.132;5.442;2022-08-01T00:04:22;9.02;;;4.13;;
71965;SDS011;59836;52.132;5.442;2022-08-01T00:06:48;7.97;;;3.80;;
71965;SDS011;59836;52.132;5.442;2022-08-01T00:09:15;4.38;;;3.22;;
71965;SDS011;59836;52.132;5.442;2022-08-01T00:11:49;5.80;;;3.53;;
71965;SDS011;59836;52.132;5.442;2022-08-01T00:14:25;7.30;;;3.70;;
71965;SDS011;59836;52.132;5.442;2022-08-01T00:16:58;6.15;;;3.53;;
71965;SDS011;59836;52.132;5.442;2022-08-01T00:19:32;7.93;;;3.57;;
71965;SDS011;59836;52.132;5.442;2022-08-01T00:21:59;6.97;;;3.20;;
71965;SDS011;59836;52.132;5.442;2022-08-01T00:24:25;4.85;;;3.08;;
71965;SDS011;59836;52.132;5.442;2022-08-01T00:26:52;4.30;;;2.60;;
71965;SDS011;59836;52.132;5.442;2022-08-01T00:29:18;5.15;;;3.00;;
71965;SDS011;59836;52.132;5.442;2022-08-01T00:32:05;6.03;;;2.50;;
71965;SDS011;59836;52.132;5.442;2022-08-01T00:34:32;6.45;;;2.83;;
71965;SDS011;59836;52.132;5.442;2022-08-01T00:36:59;5.05;;;3.20;;
71965;SDS011;59836;52.132;5.442;2022-08-01T00:39:25;5.63;;;2.90;;
71965;SDS011;59836;52.132;5.442;2022-08-01T00:41:52;5.35;;;2.95;;
71965;SDS011;59836;52.132;5.442;2022-08-01T00:44:26;5.57;;;2.90;;
71965;SDS011;59836;52.132;5.442;2022-08-01T00:46:53;3.85;;;2.80;;
71965;SDS011;59836;52.132;5.442;2022-08-01T00:49:20;4.82;;;2.78;;
71965;SDS011;59836;52.132;5.442;2022-08-01T00:51:46;5.35;;;2.75;;
71965;SDS011;59836;52.132;5.442;2022-08-01T00:54:14;4.75;;;3.10;;
71965;SDS011;59836;52.132;5.442;2022-08-01T00:56:42;4.67;;;3.00;;
71965;SDS011;59836;52.132;5.442;2022-08-01T00:59:09;5.68;;;3.05;;
71965;SDS011;59836;52.132;5.442;2022-08-01T01:01:39;5.90;;;3.60;;
71965;SDS011;59836;52.132;5.442;2022-08-01T01:04:12;5.35;;;2.72;;
71965;SDS011;59836;52.132;5.442;2022-08-01T01:06:54;7.20;;;4.05;;
71965;SDS011;59836;52.132;5.442;2022-08-01T01:15:06;5.32;;;3.25;;
71965;SDS011;59836;52.132;5.442;2022-08-01T01:17:37;5.68;;;3.20;;
71965;SDS011;59836;52.132;5.442;2022-08-01T01:20:15;7.72;;;3.50;;
71965;SDS011;59836;52.132;5.442;2022-08-01T01:25:22;8.27;;;2.95;;
71965;SDS011;59836;52.132;5.442;2022-08-01T01:28:29;6.05;;;3.47;;
71965;SDS011;59836;52.132;5.442;2022-08-01T01:31:10;6.72;;;3.83;;
71965;SDS011;59836;52.132;5.442;2022-08-01T01:33:39;7.10;;;3.05;;
71965;SDS011;59836;52.132;5.442;2022-08-01T01:36:12;6.87;;;3.40;;
71965;SDS011;59836;52.132;5.442;2022-08-01T01:38:42;6.50;;;3.70;;
71965;SDS011;59836;52.132;5.442;2022-08-01T01:41:11;7.00;;;3.50;;
71965;SDS011;59836;52.132;5.442;2022-08-01T01:43:40;6.15;;;3.40;;
71965;SDS011;59836;52.132;5.442;2022-08-01T01:46:07;9.90;;;3.42;;
71965;SDS011;59836;52.132;5.442;2022-08-01T01:48:36;5.60;;;3.13;;
71965;SDS011;59836;52.132;5.442;2022-08-01T01:51:05;5.53;;;2.88;;
71965;SDS011;59836;52.132;5.442;2022-08-01T01:53:32;7.05;;;3.38;;
71965;SDS011;59836;52.132;5.442;2022-08-01T01:56:01;9.38;;;4.28;;
71965;SDS011;59836;52.132;5.442;2022-08-01T01:58:29;7.53;;;4.05;;
71965;SDS011;59836;52.132;5.442;2022-08-01T02:00:59;8.03;;;3.50;;
71965;SDS011;59836;52.132;5.442;2022-08-01T02:03:29;8.00;;;3.90;;
71965;SDS011;59836;52.132;5.442;2022-08-01T02:05:57;6.50;;;3.72;;
71965;SDS011;59836;52.132;5.442;2022-08-01T02:08:25;5.78;;;3.60;;
71965;SDS011;59836;52.132;5.442;2022-08-01T02:10:57;6.80;;;3.58;;
71965;SDS011;59836;52.132;5.442;2022-08-01T02:13:43;10.00;;;3.77;;
71965;SDS011;59836;52.132;5.442;2022-08-01T02:16:14;5.88;;;3.38;;
71965;SDS011;59836;52.132;5.442;2022-08-01T02:18:43;6.43;;;3.83;;
71965;SDS011;59836;52.132;5.442;2022-08-01T02:21:10;6.15;;;3.83;;
71965;SDS011;59836;52.132;5.442;2022-08-01T02:23:39;8.07;;;3.13;;
71965;SDS011;59836;52.132;5.442;2022-08-01T02:26:09;7.30;;;3.37;;
71965;SDS011;59836;52.132;5.442;2022-08-01T02:28:45;6.93;;;3.70;;
71965;SDS011;59836;52.132;5.442;2022-08-01T02:31:16;7.65;;;4.25;;
71965;SDS011;59836;52.132;5.442;2022-08-01T02:33:48;7.55;;;3.67;;
71965;SDS011;59836;52.132;5.442;2022-08-01T02:36:23;7.38;;;4.07;;
71965;SDS011;59836;52.132;5.442;2022-08-01T02:38:58;8.27;;;3.57;;
71965;SDS011;59836;52.132;5.442;2022-08-01T02:41:27;7.30;;;3.42;;
71965;SDS011;59836;52.132;5.442;2022-08-01T02:43:58;7.95;;;3.83;;
71965;SDS011;59836;52.132;5.442;2022-08-01T02:46:29;6.57;;;3.65;;
71965;SDS011;59836;52.132;5.442;2022-08-01T02:49:01;6.90;;;3.60;;
71965;SDS011;59836;52.132;5.442;2022-08-01T02:51:29;7.13;;;3.57;;
71965;SDS011;59836;52.132;5.442;2022-08-01T02:53:57;7.43;;;3.58;;
71965;SDS011;59836;52.132;5.442;2022-08-01T02:56:27;6.55;;;3.90;;
71965;SDS011;59836;52.132;5.442;2022-08-01T02:59:02;8.27;;;3.80;;
71965;SDS011;59836;52.132;5.442;2022-08-01T03:01:32;6.30;;;3.45;;
71965;SDS011;59836;52.132;5.442;2022-08-01T03:04:07;7.13;;;3.23;;
71965;SDS011;59836;52.132;5.442;2022-08-01T03:06:34;6.45;;;3.17;;
71965;SDS011;59836;52.132;5.442;2022-08-01T03:09:04;7.45;;;3.53;;
71965;SDS011;59836;52.132;5.442;2022-08-01T03:11:32;6.07;;;3.40;;
71965;SDS011;59836;52.132;5.442;2022-08-01T03:14:02;7.07;;;3.55;;
71965;SDS011;59836;52.132;5.442;2022-08-01T03:16:31;6.80;;;4.00;;
71965;SDS011;59836;52.132;5.442;2022-08-01T03:19:00;7.07;;;3.45;;
71965;SDS011;59836;52.132;5.442;2022-08-01T03:21:28;7.68;;;4.32;;
71965;SDS011;59836;52.132;5.442;2022-08-01T03:23:57;6.78;;;3.58;;
71965;SDS011;59836;52.132;5.442;2022-08-01T03:26:27;8.65;;;4.07;;
71965;SDS011;59836;52.132;5.442;2022-08-01T03:28:55;6.90;;;3.50;;
71965;SDS011;59836;52.132;5.442;2022-08-01T03:31:24;7.25;;;4.40;;
71965;SDS011;59836;52.132;5.442;2022-08-01T03:33:52;5.88;;;4.00;;
71965;SDS011;59836;52.132;5.442;2022-08-01T03:36:20;5.93;;;3.88;;
71965;SDS011;59836;52.132;5.442;2022-08-01T03:38:52;6.05;;;3.78;;
71965;SDS011;59836;52.132;5.442;2022-08-01T03:41:24;6.50;;;3.20;;
71965;SDS011;59836;52.132;5.442;2022-08-01T03:44:13;6.28;;;3.83;;
71965;SDS011;59836;52.132;5.442;2022-08-01T03:46:43;6.32;;;3.88;;
71965;SDS011;59836;52.132;5.442;2022-08-01T03:49:23;7.65;;;3.58;;
71965;SDS011;59836;52.132;5.442;2022-08-01T03:51:52;4.82;;;3.35;;
71965;SDS011;59836;52.132;5.442;2022-08-01T03:54:21;5.97;;;3.30;;
71965;SDS011;59836;52.132;5.442;2022-08-01T03:56:50;6.20;;;3.50;;
71965;SDS011;59836;52.132;5.442;2022-08-01T03:59:18;5.80;;;3.08;;
71965;SDS011;59836;52.132;5.442;2022-08-01T04:01:46;6.30;;;3.38;;
71965;SDS011;59836;52.132;5.442;2022-08-01T04:04:14;5.18;;;3.35;;
71965;SDS011;59836;52.132;5.442;2022-08-01T04:06:41;6.33;;;3.63;;
71965;SDS011;59836;52.132;5.442;2022-08-01T04:09:10;5.78;;;3.15;;
71965;SDS011;59836;52.132;5.442;2022-08-01T04:11:40;6.97;;;3.50;;
71965;SDS011;59836;52.132;5.442;2022-08-01T04:14:07;7.93;;;4.00;;
71965;SDS011;59836;52.132;5.442;2022-08-01T04:16:34;7.22;;;3.92;;
71965;SDS011;59836;52.132;5.442;2022-08-01T04:19:01;6.67;;;3.40;;
71965;SDS011;59836;52.132;5.442;2022-08-01T04:21:28;6.65;;;4.10;;
71965;SDS011;59836;52.132;5.442;2022-08-01T04:23:59;6.00;;;3.67;;
71965;SDS011;59836;52.132;5.442;2022-08-01T04:26:29;6.03;;;3.65;;
71965;SDS011;59836;52.132;5.442;2022-08-01T04:28:58;7.35;;;3.80;;
71965;SDS011;59836;52.132;5.442;2022-08-01T04:31:28;5.33;;;3.23;;
71965;SDS011;59836;52.132;5.442;2022-08-01T04:33:57;8.70;;;3.42;;
71965;SDS011;59836;52.132;5.442;2022-08-01T04:36:26;6.05;;;3.20;;
71965;SDS011;59836;52.132;5.442;2022-08-01T04:38:57;5.07;;;3.42;;
71965;SDS011;59836;52.132;5.442;2022-08-01T04:41:26;5.28;;;2.90;;
71965;SDS011;59836;52.132;5.442;2022-08-01T04:43:54;6.53;;;4.00;;
71965;SDS011;59836;52.132;5.442;2022-08-01T04:46:21;4.65;;;2.50;;
71965;SDS011;59836;52.132;5.442;2022-08-01T04:48:48;4.90;;;2.00;;
71965;SDS011;59836;52.132;5.442;2022-08-01T04:51:16;2.40;;;1.50;;
71965;SDS011;59836;52.132;5.442;2022-08-01T04:53:44;2.40;;;1.58;;
71965;SDS011;59836;52.132;5.442;2022-08-01T04:56:12;3.37;;;1.27;;
71965;SDS011;59836;52.132;5.442;2022-08-01T04:58:40;1.95;;;1.13;;
71965;SDS011;59836;52.132;5.442;2022-08-01T05:01:07;1.33;;;1.05;;
71965;SDS011;59836;52.132;5.442;2022-08-01T05:03:34;1.73;;;1.02;;
71965;SDS011;59836;52.132;5.442;2022-08-01T05:06:04;2.00;;;1.23;;
71965;SDS011;59836;52.132;5.442;2022-08-01T05:08:30;2.13;;;1.27;;
71965;SDS011;59836;52.132;5.442;2022-08-01T05:10:57;3.63;;;1.08;;
71965;SDS011;59836;52.132;5.442;2022-08-01T05:13:23;1.75;;;1.30;;
71965;SDS011;59836;52.132;5.442;2022-08-01T05:15:50;1.90;;;1.00;;
71965;SDS011;59836;52.132;5.442;2022-08-01T05:18:16;2.08;;;1.20;;
71965;SDS011;59836;52.132;5.442;2022-08-01T05:20:53;2.23;;;0.90;;
71965;SDS011;59836;52.132;5.442;2022-08-01T05:23:19;1.73;;;1.05;;
71965;SDS011;59836;52.132;5.442;2022-08-01T05:26:05;1.70;;;1.20;;
71965;SDS011;59836;52.132;5.442;2022-08-01T05:28:32;1.85;;;0.85;;
71965;SDS011;59836;52.132;5.442;2022-08-01T05:30:58;1.85;;;1.27;;
71965;SDS011;59836;52.132;5.442;2022-08-01T05:33:25;1.97;;;1.00;;
71965;SDS011;59836;52.132;5.442;2022-08-01T05:35:51;2.20;;;1.20;;
71965;SDS011;59836;52.132;5.442;2022-08-01T05:38:18;1.90;;;1.42;;
71965;SDS011;59836;52.132;5.442;2022-08-01T05:40:44;1.95;;;1.48;;
71965;SDS011;59836;52.132;5.442;2022-08-01T05:43:10;2.67;;;1.27;;
71965;SDS011;59836;52.132;5.442;2022-08-01T05:45:37;2.73;;;1.50;;
71965;SDS011;59836;52.132;5.442;2022-08-01T05:48:03;2.08;;;1.33;;
71965;SDS011;59836;52.132;5.442;2022-08-01T05:50:30;2.55;;;1.40;;
71965;SDS011;59836;52.132;5.442;2022-08-01T05:52:56;2.05;;;1.20;;
71965;SDS011;59836;52.132;5.442;2022-08-01T05:55:23;2.78;;;1.58;;
71965;SDS011;59836;52.132;5.442;2022-08-01T05:57:49;3.40;;;1.20;;
71965;SDS011;59836;52.132;5.442;2022-08-01T06:00:16;2.80;;;1.40;;
71965;SDS011;59836;52.132;5.442;2022-08-01T06:02:42;2.08;;;1.33;;
71965;SDS011;59836;52.132;5.442;2022-08-01T06:05:09;3.17;;;1.58;;
71965;SDS011;59836;52.132;5.442;2022-08-01T06:07:38;5.40;;;1.20;;
71965;SDS011;59836;52.132;5.442;2022-08-01T06:10:06;2.90;;;1.30;;
71965;SDS011;59836;52.132;5.442;2022-08-01T06:12:33;2.47;;;1.23;;
71965;SDS011;59836;52.132;5.442;2022-08-01T06:15:01;3.40;;;1.77;;
71965;SDS011;59836;52.132;5.442;2022-08-01T06:17:27;2.05;;;1.42;;
71965;SDS011;59836;52.132;5.442;2022-08-01T06:19:54;2.03;;;1.10;;
71965;SDS011;59836;52.132;5.442;2022-08-01T06:22:21;2.00;;;1.40;;
71965;SDS011;59836;52.132;5.442;2022-08-01T06:24:47;2.03;;;1.52;;
71965;SDS011;59836;52.132;5.442;2022-08-01T06:27:14;2.20;;;1.52;;
71965;SDS011;59836;52.132;5.442;2022-08-01T06:29:47;2.55;;;1.50;;
71965;SDS011;59836;52.132;5.442;2022-08-01T06:32:19;2.00;;;1.50;;
71965;SDS011;59836;52.132;5.442;2022-08-01T06:34:52;3.33;;;1.67;;
71965;SDS011;59836;52.132;5.442;2022-08-01T06:37:20;3.05;;;1.50;;
71965;SDS011;59836;52.132;5.442;2022-08-01T06:39:47;2.72;;;1.38;;
71965;SDS011;59836;52.132;5.442;2022-08-01T06:42:15;3.42;;;1.60;;
71965;SDS011;59836;52.132;5.442;2022-08-01T06:44:42;3.03;;;1.42;;
71965;SDS011;59836;52.132;5.442;2022-08-01T06:47:08;2.47;;;1.40;;
71965;SDS011;59836;52.132;5.442;2022-08-01T06:49:35;2.17;;;1.58;;
71965;SDS011;59836;52.132;5.442;2022-08-01T06:52:01;3.40;;;1.98;;
71965;SDS011;59836;52.132;5.442;2022-08-01T06:54:33;2.40;;;1.77;;
71965;SDS011;59836;52.132;5.442;2022-08-01T06:57:00;4.55;;;1.50;;
71965;SDS011;59836;52.132;5.442;2022-08-01T06:59:26;2.37;;;1.70;;
71965;SDS011;59836;52.132;5.442;2022-08-01T07:01:53;3.45;;;1.38;;
71965;SDS011;59836;52.132;5.442;2022-08-01T07:04:19;3.10;;;1.35;;
71965;SDS011;59836;52.132;5.442;2022-08-01T07:06:47;2.20;;;1.40;;
71965;SDS011;59836;52.132;5.442;2022-08-01T07:09:13;2.47;;;1.80;;
71965;SDS011;59836;52.132;5.442;2022-08-01T07:11:40;3.70;;;2.00;;
71965;SDS011;59836;52.132;5.442;2022-08-01T07:14:06;3.00;;;1.67;;
71965;SDS011;59836;52.132;5.442;2022-08-01T07:16:33;3.25;;;1.85;;
71965;SDS011;59836;52.132;5.442;2022-08-01T07:18:59;3.50;;;1.80;;
71965;SDS011;59836;52.132;5.442;2022-08-01T07:21:26;2.58;;;1.83;;
71965;SDS011;59836;52.132;5.442;2022-08-01T07:24:07;2.53;;;1.60;;
71965;SDS011;59836;52.132;5.442;2022-08-01T07:26:39;2.85;;;1.83;;
71965;SDS011;59836;52.132;5.442;2022-08-01T07:29:20;3.33;;;2.25;;
71965;SDS011;59836;52.132;5.442;2022-08-01T07:31:47;3.28;;;2.38;;
71965;SDS011;59836;52.132;5.442;2022-08-01T07:34:14;2.83;;;2.20;;
71965;SDS011;59836;52.132;5.442;2022-08-01T07:36:40;3.17;;;2.40;;
71965;SDS011;59836;52.132;5.442;2022-08-01T07:39:07;4.18;;;2.45;;
71965;SDS011;59836;52.132;5.442;2022-08-01T07:41:33;4.63;;;2.65;;
71965;SDS011;59836;52.132;5.442;2022-08-01T07:44:20;4.38;;;2.47;;
71965;SDS011;59836;52.132;5.442;2022-08-01T07:46:53;4.65;;;2.72;;
71965;SDS011;59836;52.132;5.442;2022-08-01T07:49:20;7.40;;;2.80;;
71965;SDS011;59836;52.132;5.442;2022-08-01T07:51:47;5.43;;;2.80;;
71965;SDS011;59836;52.132;5.442;2022-08-01T07:54:29;7.20;;;3.13;;
71965;SDS011;59836;52.132;5.442;2022-08-01T07:56:59;5.72;;;2.90;;
71965;SDS011;59836;52.132;5.442;2022-08-01T07:59:25;6.32;;;2.63;;
71965;SDS011;59836;52.132;5.442;2022-08-01T08:01:51;7.93;;;2.30;;
71965;SDS011;59836;52.132;5.442;2022-08-01T08:04:18;5.55;;;2.60;;
71965;SDS011;59836;52.132;5.442;2022-08-01T08:06:44;5.35;;;2.92;;
71965;SDS011;59836;52.132;5.442;2022-08-01T08:09:13;8.98;;;2.50;;
71965;SDS011;59836;52.132;5.442;2022-08-01T08:11:41;6.53;;;2.90;;
71965;SDS011;59836;52.132;5.442;2022-08-01T08:14:13;5.40;;;2.70;;
71965;SDS011;59836;52.132;5.442;2022-08-01T08:16:39;11.65;;;2.90;;
71965;SDS011;59836;52.132;5.442;2022-08-01T08:19:06;7.90;;;2.20;;
71965;SDS011;59836;52.132;5.442;2022-08-01T08:21:32;8.65;;;2.70;;
71965;SDS011;59836;52.132;5.442;2022-08-01T08:23:59;8.18;;;2.90;;
71965;SDS011;59836;52.132;5.442;2022-08-01T08:26:44;7.27;;;2.70;;
71965;SDS011;59836;52.132;5.442;2022-08-01T08:29:17;10.02;;;2.60;;
71965;SDS011;59836;52.132;5.442;2022-08-01T08:31:43;8.77;;;2.50;;
71965;SDS011;59836;52.132;5.442;2022-08-01T08:34:18;10.20;;;2.38;;
71965;SDS011;59836;52.132;5.442;2022-08-01T08:36:45;10.70;;;2.90;;
71965;SDS011;59836;52.132;5.442;2022-08-01T08:39:13;6.00;;;2.10;;
71965;SDS011;59836;52.132;5.442;2022-08-01T08:41:39;8.45;;;2.78;;
71965;SDS011;59836;52.132;5.442;2022-08-01T08:44:07;10.25;;;2.80;;
71965;SDS011;59836;52.132;5.442;2022-08-01T08:46:43;7.22;;;2.22;;
71965;SDS011;59836;52.132;5.442;2022-08-01T08:49:11;10.98;;;2.97;;
71965;SDS011;59836;52.132;5.442;2022-08-01T08:52:01;8.73;;;2.40;;
71965;SDS011;59836;52.132;5.442;2022-08-01T08:54:31;6.63;;;2.58;;
71965;SDS011;59836;52.132;5.442;2022-08-01T08:56:59;8.77;;;2.30;;
71965;SDS011;59836;52.132;5.442;2022-08-01T08:59:26;8.77;;;2.90;;
71965;SDS011;59836;52.132;5.442;2022-08-01T09:01:54;8.00;;;2.30;;
71965;SDS011;59836;52.132;5.442;2022-08-01T09:04:22;9.60;;;2.10;;
71965;SDS011;59836;52.132;5.442;2022-08-01T09:06:52;4.25;;;1.92;;
71965;SDS011;59836;52.132;5.442;2022-08-01T09:09:19;5.75;;;1.70;;
71965;SDS011;59836;52.132;5.442;2022-08-01T09:11:45;6.20;;;2.20;;
71965;SDS011;59836;52.132;5.442;2022-08-01T09:14:23;7.68;;;2.35;;
71965;SDS011;59836;52.132;5.442;2022-08-01T09:17:02;6.60;;;1.90;;
71965;SDS011;59836;52.132;5.442;2022-08-01T09:19:37;6.28;;;1.73;;
71965;SDS011;59836;52.132;5.442;2022-08-01T09:22:07;7.18;;;1.70;;
71965;SDS011;59836;52.132;5.442;2022-08-01T09:24:36;4.25;;;1.20;;
71965;SDS011;59836;52.132;5.442;2022-08-01T09:27:20;6.53;;;1.60;;
71965;SDS011;59836;52.132;5.442;2022-08-01T09:29:50;3.47;;;1.40;;
71965;SDS011;59836;52.132;5.442;2022-08-01T09:32:27;5.50;;;1.35;;
71965;SDS011;59836;52.132;5.442;2022-08-01T09:38:11;6.38;;;1.90;;
71965;SDS011;59836;52.132;5.442;2022-08-01T09:40:48;5.45;;;1.90;;
71965;SDS011;59836;52.132;5.442;2022-08-01T09:43:15;7.43;;;1.90;;
71965;SDS011;59836;52.132;5.442;2022-08-01T09:45:42;9.48;;;1.65;;
71965;SDS011;59836;52.132;5.442;2022-08-01T09:48:15;6.15;;;1.55;;
71965;SDS011;59836;52.132;5.442;2022-08-01T09:50:43;5.15;;;1.55;;
71965;SDS011;59836;52.132;5.442;2022-08-01T09:53:14;6.88;;;1.85;;
71965;SDS011;59836;52.132;5.442;2022-08-01T09:56:01;9.63;;;1.73;;
71965;SDS011;59836;52.132;5.442;2022-08-01T09:58:48;5.82;;;1.40;;
71965;SDS011;59836;52.132;5.442;2022-08-01T10:01:28;7.22;;;1.60;;
71965;SDS011;59836;52.132;5.442;2022-08-01T10:04:08;6.75;;;1.70;;
71965;SDS011;59836;52.132;5.442;2022-08-01T10:06:38;5.03;;;1.67;;
71965;SDS011;59836;52.132;5.442;2022-08-01T10:09:07;5.80;;;1.20;;
71965;SDS011;59836;52.132;5.442;2022-08-01T10:11:33;2.78;;;0.93;;
71965;SDS011;59836;52.132;5.442;2022-08-01T10:14:05;5.35;;;1.88;;
71965;SDS011;59836;52.132;5.442;2022-08-01T10:16:33;4.85;;;1.30;;
71965;SDS011;59836;52.132;5.442;2022-08-01T10:19:05;3.33;;;1.10;;
71965;SDS011;59836;52.132;5.442;2022-08-01T10:21:40;2.00;;;1.00;;
71965;SDS011;59836;52.132;5.442;2022-08-01T10:24:24;4.63;;;1.27;;
71965;SDS011;59836;52.132;5.442;2022-08-01T10:27:01;8.00;;;1.60;;
71965;SDS011;59836;52.132;5.442;2022-08-01T10:29:40;5.18;;;1.40;;
71965;SDS011;59836;52.132;5.442;2022-08-01T10:32:29;5.55;;;0.95;;
71965;SDS011;59836;52.132;5.442;2022-08-01T10:34:56;5.23;;;1.30;;
71965;SDS011;59836;52.132;5.442;2022-08-01T10:37:33;5.90;;;1.05;;
71965;SDS011;59836;52.132;5.442;2022-08-01T10:40:17;7.75;;;1.55;;
71965;SDS011;59836;52.132;5.442;2022-08-01T10:42:57;4.57;;;1.10;;
71965;SDS011;59836;52.132;5.442;2022-08-01T10:45:24;5.13;;;1.45;;
71965;SDS011;59836;52.132;5.442;2022-08-01T10:47:58;3.83;;;1.00;;
71965;SDS011;59836;52.132;5.442;2022-08-01T10:50:43;5.45;;;1.40;;
71965;SDS011;59836;52.132;5.442;2022-08-01T10:53:17;6.78;;;1.10;;
71965;SDS011;59836;52.132;5.442;2022-08-01T10:58:32;5.32;;;1.20;;
71965;SDS011;59836;52.132;5.442;2022-08-01T11:01:18;6.90;;;1.23;;
71965;SDS011;59836;52.132;5.442;2022-08-01T11:12:07;5.28;;;1.50;;
71965;SDS011;59836;52.132;5.442;2022-08-01T11:22:30;5.10;;;1.52;;
71965;SDS011;59836;52.132;5.442;2022-08-01T11:24:57;8.25;;;1.33;;
71965;SDS011;59836;52.132;5.442;2022-08-01T11:27:30;8.33;;;1.37;;
71965;SDS011;59836;52.132;5.442;2022-08-01T11:32:51;6.03;;;1.70;;
71965;SDS011;59836;52.132;5.442;2022-08-01T11:35:37;8.35;;;1.35;;
71965;SDS011;59836;52.132;5.442;2022-08-01T11:38:25;4.75;;;1.27;;
71965;SDS011;59836;52.132;5.442;2022-08-01T11:41:10;5.67;;;1.47;;
71965;SDS011;59836;52.132;5.442;2022-08-01T11:49:25;5.53;;;1.33;;
71965;SDS011;59836;52.132;5.442;2022-08-01T11:55:28;4.60;;;1.10;;
71965;SDS011;59836;52.132;5.442;2022-08-01T11:57:36;5.80;;;1.30;;
71965;SDS011;59836;52.132;5.442;2022-08-01T12:00:09;4.18;;;1.40;;
71965;SDS011;59836;52.132;5.442;2022-08-01T12:02:41;4.65;;;1.35;;
71965;SDS011;59836;52.132;5.442;2022-08-01T12:05:11;6.10;;;1.30;;
71965;SDS011;59836;52.132;5.442;2022-08-01T12:07:41;3.33;;;1.13;;
71965;SDS011;59836;52.132;5.442;2022-08-01T12:10:12;1.63;;;0.90;;
71965;SDS011;59836;52.132;5.442;2022-08-01T12:12:48;4.10;;;1.27;;
71965;SDS011;59836;52.132;5.442;2022-08-01T12:15:17;3.20;;;1.02;;
71965;SDS011;59836;52.132;5.442;2022-08-01T12:17:50;6.35;;;1.40;;
71965;SDS011;59836;52.132;5.442;2022-08-01T12:20:26;3.77;;;1.13;;
71965;SDS011;59836;52.132;5.442;2022-08-01T12:22:56;4.82;;;1.00;;
71965;SDS011;59836;52.132;5.442;2022-08-01T12:25:23;5.68;;;1.80;;
71965;SDS011;59836;52.132;5.442;2022-08-01T12:27:50;4.03;;;0.80;;
71965;SDS011;59836;52.132;5.442;2022-08-01T12:30:21;5.13;;;1.20;;
71965;SDS011;59836;52.132;5.442;2022-08-01T12:32:50;2.67;;;0.83;;
71965;SDS011;59836;52.132;5.442;2022-08-01T12:35:19;4.20;;;1.05;;
71965;SDS011;59836;52.132;5.442;2022-08-01T12:37:52;3.03;;;0.90;;
71965;SDS011;59836;52.132;5.442;2022-08-01T12:40:20;3.03;;;0.77;;
71965;SDS011;59836;52.132;5.442;2022-08-01T12:42:53;3.55;;;0.90;;
71965;SDS011;59836;52.132;5.442;2022-08-01T12:45:23;3.00;;;0.70;;
71965;SDS011;59836;52.132;5.442;2022-08-01T12:47:53;1.75;;;0.63;;
71965;SDS011;59836;52.132;5.442;2022-08-01T12:50:21;2.95;;;0.88;;
71965;SDS011;59836;52.132;5.442;2022-08-01T12:52:49;3.85;;;0.80;;
71965;SDS011;59836;52.132;5.442;2022-08-01T12:55:20;2.03;;;0.60;;
71965;SDS011;59836;52.132;5.442;2022-08-01T12:57:49;2.83;;;0.80;;
71965;SDS011;59836;52.132;5.442;2022-08-01T13:00:19;2.28;;;0.82;;
71965;SDS011;59836;52.132;5.442;2022-08-01T13:02:48;3.40;;;0.90;;
71965;SDS011;59836;52.132;5.442;2022-08-01T13:05:16;1.73;;;0.80;;
71965;SDS011;59836;52.132;5.442;2022-08-01T13:07:44;2.60;;;1.20;;
71965;SDS011;59836;52.132;5.442;2022-08-01T13:10:11;2.57;;;0.60;;
71965;SDS011;59836;52.132;5.442;2022-08-01T13:12:41;4.60;;;0.93;;
71965;SDS011;59836;52.132;5.442;2022-08-01T13:15:17;4.45;;;1.02;;
71965;SDS011;59836;52.132;5.442;2022-08-01T13:17:45;2.33;;;0.80;;
71965;SDS011;59836;52.132;5.442;2022-08-01T13:20:22;3.50;;;1.10;;
71965;SDS011;59836;52.132;5.442;2022-08-01T13:22:53;2.23;;;0.60;;
71965;SDS011;59836;52.132;5.442;2022-08-01T13:25:20;2.33;;;0.60;;
71965;SDS011;59836;52.132;5.442;2022-08-01T13:27:49;1.33;;;0.70;;
71965;SDS011;59836;52.132;5.442;2022-08-01T13:30:50;2.75;;;1.00;;
71965;SDS011;59836;52.132;5.442;2022-08-01T13:33:21;2.90;;;1.10;;
71965;SDS011;59836;52.132;5.442;2022-08-01T13:35:49;2.57;;;0.80;;
71965;SDS011;59836;52.132;5.442;2022-08-01T13:38:16;2.20;;;0.70;;
71965;SDS011;59836;52.132;5.442;2022-08-01T13:40:43;1.88;;;0.65;;
71965;SDS011;59836;52.132;5.442;2022-08-01T13:43:09;1.88;;;0.73;;
71965;SDS011;59836;52.132;5.442;2022-08-01T13:45:35;1.98;;;0.70;;
71965;SDS011;59836;52.132;5.442;2022-08-01T13:48:02;2.80;;;0.80;;
71965;SDS011;59836;52.132;5.442;2022-08-01T13:50:43;1.63;;;0.70;;
71965;SDS011;59836;52.132;5.442;2022-08-01T13:53:27;2.45;;;0.98;;
71965;SDS011;59836;52.132;5.442;2022-08-01T13:55:54;2.17;;;0.88;;
71965;SDS011;59836;52.132;5.442;2022-08-01T13:58:21;1.73;;;0.85;;
71965;SDS011;59836;52.132;5.442;2022-08-01T14:00:47;1.47;;;0.77;;
71965;SDS011;59836;52.132;5.442;2022-08-01T14:03:14;3.95;;;0.80;;
71965;SDS011;59836;52.132;5.442;2022-08-01T14:05:43;1.75;;;0.88;;
71965;SDS011;59836;52.132;5.442;2022-08-01T14:08:10;2.97;;;0.63;;
71965;SDS011;59836;52.132;5.442;2022-08-01T14:10:36;1.63;;;0.70;;
71965;SDS011;59836;52.132;5.442;2022-08-01T14:13:03;1.93;;;0.70;;
71965;SDS011;59836;52.132;5.442;2022-08-01T14:15:31;1.52;;;0.63;;
71965;SDS011;59836;52.132;5.442;2022-08-01T14:18:04;2.35;;;0.75;;
71965;SDS011;59836;52.132;5.442;2022-08-01T14:20:38;1.95;;;0.50;;
71965;SDS011;59836;52.132;5.442;2022-08-01T14:23:05;1.73;;;0.70;;
71965;SDS011;59836;52.132;5.442;2022-08-01T14:25:35;1.77;;;0.70;;
71965;SDS011;59836;52.132;5.442;2022-08-01T14:28:22;1.73;;;0.50;;
71965;SDS011;59836;52.132;5.442;2022-08-01T14:30:50;3.00;;;0.90;;
71965;SDS011;59836;52.132;5.442;2022-08-01T14:33:16;4.25;;;1.10;;
71965;SDS011;59836;52.132;5.442;2022-08-01T14:35:43;1.48;;;0.70;;
71965;SDS011;59836;52.132;5.442;2022-08-01T14:38:29;2.70;;;0.60;;
71965;SDS011;59836;52.132;5.442;2022-08-01T14:40:59;2.05;;;0.70;;
71965;SDS011;59836;52.132;5.442;2022-08-01T14:43:26;3.08;;;0.77;;
71965;SDS011;59836;52.132;5.442;2022-08-01T14:45:59;2.10;;;0.70;;
71965;SDS011;59836;52.132;5.442;2022-08-01T14:48:26;3.40;;;0.70;;
71965;SDS011;59836;52.132;5.442;2022-08-01T14:50:55;2.40;;;1.10;;
71965;SDS011;59836;52.132;5.442;2022-08-01T14:53:22;4.53;;;0.90;;
71965;SDS011;59836;52.132;5.442;2022-08-01T14:55:48;2.55;;;0.70;;
71965;SDS011;59836;52.132;5.442;2022-08-01T14:58:15;2.55;;;0.60;;
71965;SDS011;59836;52.132;5.442;2022-08-01T15:00:41;2.42;;;0.63;;
71965;SDS011;59836;52.132;5.442;2022-08-01T15:03:08;3.50;;;0.77;;
71965;SDS011;59836;52.132;5.442;2022-08-01T15:05:34;2.67;;;0.60;;
71965;SDS011;59836;52.132;5.442;2022-08-01T15:08:02;3.13;;;0.60;;
71965;SDS011;59836;52.132;5.442;2022-08-01T15:10:30;1.80;;;0.70;;
71965;SDS011;59836;52.132;5.442;2022-08-01T15:12:58;3.28;;;1.00;;
71965;SDS011;59836;52.132;5.442;2022-08-01T15:15:26;3.00;;;0.80;;
71965;SDS011;59836;52.132;5.442;2022-08-01T15:17:53;4.95;;;1.55;;
71965;SDS011;59836;52.132;5.442;2022-08-01T15:20:20;2.58;;;1.45;;
71965;SDS011;59836;52.132;5.442;2022-08-01T15:22:46;3.13;;;1.48;;
71965;SDS011;59836;52.132;5.442;2022-08-01T15:25:14;2.10;;;0.80;;
71965;SDS011;59836;52.132;5.442;2022-08-01T15:27:41;2.93;;;0.67;;
71965;SDS011;59836;52.132;5.442;2022-08-01T15:30:08;1.50;;;0.60;;
71965;SDS011;59836;52.132;5.442;2022-08-01T15:32:35;4.40;;;1.23;;
71965;SDS011;59836;52.132;5.442;2022-08-01T15:35:02;2.00;;;0.60;;
71965;SDS011;59836;52.132;5.442;2022-08-01T15:37:28;2.20;;;0.63;;
71965;SDS011;59836;52.132;5.442;2022-08-01T15:39:55;3.67;;;0.80;;
71965;SDS011;59836;52.132;5.442;2022-08-01T15:42:22;2.55;;;0.70;;
71965;SDS011;59836;52.132;5.442;2022-08-01T15:44:52;1.55;;;0.60;;
71965;SDS011;59836;52.132;5.442;2022-08-01T15:47:18;3.45;;;1.10;;
71965;SDS011;59836;52.132;5.442;2022-08-01T15:49:45;3.58;;;1.10;;